Time;durP1;ratioP1;P1;durP2;ratioP2;P2;SDS_P1;SDS_P2;PMS_P1;PMS_P2;Temp;Humidity;BMP_temperature;BMP_pressure;BME280_temperature;BME280_humidity;BME280_pressure;Samples;Min_cycle;Max_cycle;Signal;HPM_P1;HPM_P2
2022/12/29 00:01:10;;;;;;;5.10;3.37;;;;;;;9.50;80.84;96323.31;5111719;28;20514;-56
2022/12/29 00:03:40;;;;;;;1.53;1.43;;;;;;;9.36;80.91;96332.59;5111351;28;20457;-55
2022/12/29 00:06:09;;;;;;;1.83;1.73;;;;;;;8.96;83.19;96327.31;5111468;28;20435;-55
2022/12/29 00:08:40;;;;;;;4.80;3.77;;;;;;;9.05;83.20;96323.28;5110899;28;20454;-55
2022/12/29 00:11:10;;;;;;;5.97;5.60;;;;;;;8.98;84.12;96321.81;5110316;28;20953;-55
2022/12/29 00:16:24;;;;;;;4.00;2.70;;;;;;;9.15;83.43;96309.44;5111329;28;20435;-55
2022/12/29 00:18:54;;;;;;;4.87;4.40;;;;;;;9.34;82.55;96316.13;5111398;28;20437;-55
2022/12/29 00:35:30;;;;;;;6.07;5.63;;;;;;;9.41;82.45;96333.47;5083622;28;20439;-55
2022/12/29 00:46:19;;;;;;;6.90;6.50;;;;;;;9.03;86.02;96349.16;5114772;28;20974;-56
2022/12/29 00:51:35;;;;;;;9.30;6.10;;;;;;;9.27;83.63;96344.56;5114546;28;20439;-56
2022/12/29 00:54:04;;;;;;;15.90;5.77;;;;;;;9.33;83.16;96344.47;5112949;28;20429;-55
2022/12/29 00:56:32;;;;;;;6.03;4.73;;;;;;;9.32;83.41;96347.31;5114569;28;20433;-55
2022/12/29 00:59:01;;;;;;;6.27;4.80;;;;;;;9.28;83.32;96343.56;5114674;28;20480;-55
2022/12/29 01:01:30;;;;;;;12.03;7.73;;;;;;;8.71;85.21;96332.88;5114449;28;20436;-56
2022/12/29 01:03:59;;;;;;;6.97;5.63;;;;;;;8.88;86.16;96338.22;5114683;28;20446;-55
2022/12/29 01:06:31;;;;;;;9.23;8.13;;;;;;;8.82;85.04;96303.00;5114708;28;20430;-56
2022/12/29 01:11:47;;;;;;;3.77;3.50;;;;;;;9.14;84.55;96335.06;5114074;28;20457;-55
2022/12/29 01:14:15;;;;;;;3.27;2.90;;;;;;;9.31;83.97;96337.78;5114073;28;20434;-55
2022/12/29 01:16:45;;;;;;;7.97;7.27;;;;;;;9.40;83.78;96334.53;5114193;28;20460;-55
2022/12/29 01:19:13;;;;;;;7.33;6.83;;;;;;;9.34;84.03;96330.16;5113882;28;20557;-55
2022/12/29 01:21:42;;;;;;;10.00;6.30;;;;;;;9.09;85.02;96326.22;5114523;28;20432;-56
2022/12/29 01:24:12;;;;;;;6.83;6.53;;;;;;;7.76;86.62;96148.56;5113485;28;20436;-55
2022/12/29 01:26:40;;;;;;;8.47;7.83;;;;;;;8.81;87.12;96314.59;5113796;28;20769;-56
2022/12/29 01:29:08;;;;;;;12.17;6.03;;;;;;;8.68;88.97;96327.25;5114189;28;20427;-55
2022/12/29 01:31:36;;;;;;;14.53;8.60;;;;;;;9.13;87.24;96317.63;5113933;28;20422;-55
2022/12/29 01:34:05;;;;;;;6.47;5.87;;;;;;;9.16;84.91;96293.31;5113606;28;20440;-56
2022/12/29 01:36:34;;;;;;;7.37;6.67;;;;;;;9.41;83.49;96319.47;5112993;28;20951;-55
2022/12/29 01:39:03;;;;;;;6.00;5.50;;;;;;;9.17;84.17;96310.00;5114126;28;20478;-55
2022/12/29 01:41:32;;;;;;;5.67;5.17;;;;;;;8.79;86.18;96316.66;5113714;28;20430;-55
2022/12/29 01:44:01;;;;;;;5.60;5.10;;;;;;;9.04;86.31;96303.13;5113805;28;20834;-55
2022/12/29 01:46:34;;;;;;;5.03;4.63;;;;;;;9.21;84.75;96303.22;5113525;28;20431;-55
2022/12/29 01:49:09;;;;;;;8.80;4.23;;;;;;;9.20;84.55;96297.13;5113572;28;20928;-55
2022/12/29 01:51:41;;;;;;;3.53;3.23;;;;;;;9.26;84.38;96290.84;5112633;28;20444;-55
2022/12/29 01:54:14;;;;;;;9.40;5.53;;;;;;;9.34;83.71;96293.13;5112436;28;20492;-56
2022/12/29 01:56:46;;;;;;;4.57;4.27;;;;;;;9.31;83.00;96285.66;5113592;28;20432;-55
2022/12/29 01:59:21;;;;;;;9.77;4.60;;;;;;;9.26;83.49;96279.50;5113341;28;20468;-55
2022/12/29 02:01:50;;;;;;;6.13;4.77;;;;;;;9.23;83.48;96280.78;5113550;28;20529;-55
2022/12/29 02:04:19;;;;;;;10.87;4.37;;;;;;;9.11;83.74;96274.72;5113221;28;20441;-55
2022/12/29 02:06:54;;;;;;;4.17;3.87;;;;;;;9.05;83.76;96277.50;5112994;28;20427;-55
2022/12/29 02:09:23;;;;;;;5.27;4.73;;;;;;;9.27;82.71;96279.25;5112952;28;20513;-56
2022/12/29 02:11:53;;;;;;;4.83;4.50;;;;;;;9.16;81.66;96264.22;5113389;28;20875;-56
2022/12/29 02:14:21;;;;;;;3.07;2.50;;;;;;;8.98;82.47;96274.22;5113124;28;20427;-56
2022/12/29 02:17:04;;;;;;;6.17;3.97;;;;;;;8.87;83.27;96276.66;5112921;28;20439;-56
2022/12/29 02:20:20;;;;;;;3.60;3.30;;;;;;;8.75;83.76;96270.56;5111721;28;20557;-56
2022/12/29 02:23:05;;;;;;;2.40;2.23;;;;;;;8.54;84.84;96280.97;5111775;28;20437;-56
2022/12/29 02:26:02;;;;;;;3.17;2.93;;;;;;;8.67;84.35;96281.53;5113400;28;20427;-56
2022/12/29 02:29:00;;;;;;;4.17;4.03;;;;;;;8.71;83.66;96274.72;5112680;28;20439;-56
2022/12/29 02:31:35;;;;;;;3.53;3.23;;;;;;;8.38;83.50;96252.63;5111848;28;20472;-56
2022/12/29 02:34:13;;;;;;;5.23;4.20;;;;;;;8.18;85.28;96266.16;5112860;28;20885;-56
2022/12/29 02:36:48;;;;;;;3.10;3.00;;;;;;;8.14;87.08;96270.31;5113076;28;20948;-56
2022/12/29 02:39:24;;;;;;;3.87;3.70;;;;;;;8.26;86.83;96273.75;5112439;28;20484;-56
2022/12/29 02:42:03;;;;;;;2.30;2.20;;;;;;;8.45;85.39;96272.59;5112597;28;20426;-56
2022/12/29 02:44:41;;;;;;;13.93;5.97;;;;;;;8.58;83.97;96275.00;5112487;28;20434;-56
2022/12/29 02:47:17;;;;;;;4.53;4.10;;;;;;;7.26;83.50;96084.94;5111873;28;20437;-56
2022/12/29 02:49:53;;;;;;;2.50;2.30;;;;;;;8.30;84.08;96269.63;5111889;28;20483;-56
2022/12/29 02:52:28;;;;;;;6.93;3.63;;;;;;;8.20;84.70;96267.53;5112528;28;20526;-56
2022/12/29 02:54:55;;;;;;;4.10;3.90;;;;;;;8.27;84.60;96270.13;5112350;28;20433;-56
2022/12/29 02:57:33;;;;;;;4.63;4.37;;;;;;;8.30;83.87;96259.06;5112205;28;20455;-56
2022/12/29 03:00:07;;;;;;;6.43;3.87;;;;;;;8.36;82.70;96268.72;5111987;28;20569;-56
2022/12/29 03:02:51;;;;;;;3.57;2.30;;;;;;;8.29;82.69;96258.28;5112532;28;20870;-56
2022/12/29 03:05:57;;;;;;;8.13;5.83;;;;;;;8.21;83.17;96261.25;5112486;28;20492;-56
2022/12/29 03:08:34;;;;;;;4.90;4.50;;;;;;;7.96;83.80;96260.69;5099476;28;20446;-56
2022/12/29 03:12:07;;;;;;;4.33;3.90;;;;;;;7.94;84.27;96265.38;5112080;28;20420;-56
2022/12/29 03:16:59;;;;;;;6.90;5.83;;;;;;;7.18;94.84;96269.81;5112068;28;20434;-57
2022/12/29 03:19:33;;;;;;;5.60;4.60;;;;;;;7.32;93.07;96268.59;5111992;28;20517;-57
2022/12/29 03:24:53;;;;;;;3.87;3.67;;;;;;;7.70;89.55;96269.03;5110123;28;20516;-57
2022/12/29 03:27:28;;;;;;;16.03;3.27;;;;;;;7.86;88.00;96272.84;5112175;28;20420;-56
2022/12/29 03:30:01;;;;;;;4.47;4.17;;;;;;;8.04;86.51;96275.38;5111448;28;20436;-56
2022/12/29 03:32:35;;;;;;;2.93;2.73;;;;;;;8.11;86.48;96268.94;5111805;28;20515;-57
2022/12/29 03:35:06;;;;;;;3.70;3.50;;;;;;;7.91;87.48;96273.75;5111939;28;20897;-56
2022/12/29 03:37:40;;;;;;;5.77;5.27;;;;;;;7.54;89.55;96270.47;5111637;28;20521;-57
2022/12/29 03:40:09;;;;;;;6.90;4.37;;;;;;;7.26;95.24;96272.94;5110674;28;20460;-56
2022/12/29 03:42:39;;;;;;;6.37;5.90;;;;;;;6.88;100.00;96254.03;5111884;28;20417;-56
2022/12/29 03:45:09;;;;;;;3.40;3.10;;;;;;;7.49;97.50;96273.00;5111720;28;20436;-56
2022/12/29 03:47:37;;;;;;;3.90;2.00;;;;;;;7.83;94.13;96276.72;5110845;28;20814;-56
2022/12/29 03:50:08;;;;;;;3.47;3.37;;;;;;;7.94;92.31;96275.94;5111593;28;20480;-56
2022/12/29 03:52:36;;;;;;;2.60;2.40;;;;;;;8.19;89.75;96265.16;5111563;28;20428;-56
2022/12/29 03:55:05;;;;;;;2.73;1.90;;;;;;;7.98;90.06;96265.72;5110361;28;20432;-56
2022/12/29 03:57:34;;;;;;;1.40;1.30;;;;;;;8.08;90.98;96284.44;5111401;28;20441;-56
2022/12/29 04:00:02;;;;;;;17.70;1.93;;;;;;;8.28;89.37;96276.97;5113882;28;20984;-56
2022/12/29 04:02:30;;;;;;;1.77;1.67;;;;;;;8.31;88.71;96268.59;5115871;28;20421;-56
2022/12/29 04:04:59;;;;;;;2.20;2.10;;;;;;;8.43;87.85;96276.50;5115549;28;20511;-56
2022/12/29 04:07:29;;;;;;;1.67;1.67;;;;;;;8.04;90.86;96280.66;5114249;28;20423;-56
2022/12/29 04:09:57;;;;;;;2.60;2.40;;;;;;;8.25;90.49;96280.84;5114415;28;20430;-57
2022/12/29 04:12:26;;;;;;;0.67;0.67;;;;;;;8.44;89.38;96280.75;5114888;28;20422;-56
2022/12/29 04:14:54;;;;;;;2.47;2.27;;;;;;;8.53;88.79;96285.44;5115019;28;20424;-56
2022/12/29 04:17:22;;;;;;;3.00;2.60;;;;;;;8.56;88.18;96289.47;5114908;28;20531;-57
2022/12/29 04:19:51;;;;;;;2.10;2.00;;;;;;;8.66;87.80;96292.31;5115041;28;20465;-57
2022/12/29 04:22:19;;;;;;;2.00;1.90;;;;;;;8.80;86.47;96283.13;5114494;28;20428;-56
2022/12/29 04:24:49;;;;;;;1.50;1.17;;;;;;;8.77;86.33;96288.88;5115434;28;20792;-56
2022/12/29 04:27:17;;;;;;;2.90;2.80;;;;;;;8.46;87.72;96279.50;5115294;28;20465;-56
2022/12/29 04:29:46;;;;;;;1.80;1.70;;;;;;;8.90;86.64;96293.88;5114945;28;20964;-56
2022/12/29 04:32:14;;;;;;;3.30;1.60;;;;;;;8.72;86.28;96292.22;5114557;28;20984;-56
2022/12/29 04:34:42;;;;;;;0.80;0.80;;;;;;;8.50;87.36;96288.56;5113643;28;20465;-56
2022/12/29 04:37:11;;;;;;;3.50;2.00;;;;;;;7.90;93.66;96305.63;5113890;28;20478;-57
2022/12/29 04:39:39;;;;;;;2.60;2.50;;;;;;;8.05;93.38;96290.97;5114572;28;20470;-57
2022/12/29 04:42:09;;;;;;;3.10;1.90;;;;;;;8.17;91.28;96285.69;5113741;28;20454;-57
2022/12/29 04:44:37;;;;;;;4.13;3.17;;;;;;;7.92;91.35;96304.38;5114698;28;20421;-57
2022/12/29 04:47:12;;;;;;;2.03;1.80;;;;;;;7.56;93.50;96297.44;5114854;28;20526;-57
2022/12/29 04:49:40;;;;;;;4.57;4.00;;;;;;;7.18;96.56;96301.47;5114427;28;20575;-58
2022/12/29 04:52:09;;;;;;;4.87;4.23;;;;;;;7.19;97.99;96298.59;5114138;28;20441;-58
2022/12/29 04:54:37;;;;;;;3.53;3.33;;;;;;;7.18;99.20;96307.53;5113737;28;20486;-58
2022/12/29 04:57:05;;;;;;;2.30;2.20;;;;;;;7.51;94.91;96313.13;5113377;28;20432;-58
2022/12/29 04:59:37;;;;;;;12.53;4.20;;;;;;;7.60;92.60;96314.44;5114406;28;20507;-58
2022/12/29 05:02:05;;;;;;;4.67;4.23;;;;;;;7.66;91.35;96310.88;5114707;28;20449;-58
2022/12/29 05:04:34;;;;;;;8.43;3.23;;;;;;;7.33;92.54;96283.41;5114535;28;20428;-58
2022/12/29 05:07:02;;;;;;;2.03;1.80;;;;;;;7.44;92.21;96314.25;5113665;28;20423;-58
2022/12/29 05:09:31;;;;;;;2.40;2.30;;;;;;;7.54;93.04;96310.06;5114065;28;20467;-58
2022/12/29 05:12:00;;;;;;;1.33;1.23;;;;;;;7.69;90.26;96323.63;5113465;28;20421;-58
2022/12/29 05:14:29;;;;;;;6.10;3.63;;;;;;;7.42;90.76;96305.78;5114569;28;20428;-58
2022/12/29 05:20:21;;;;;;;12.03;3.00;;;;;;;7.34;89.94;96316.63;5113913;28;20560;-58
2022/12/29 05:22:49;;;;;;;6.73;6.43;;;;;;;7.16;89.34;96321.97;5113629;28;20424;-58
2022/12/29 05:25:18;;;;;;;3.27;2.97;;;;;;;7.23;89.18;96322.69;5114039;28;20434;-58
2022/12/29 05:27:46;;;;;;;4.97;4.63;;;;;;;7.33;88.25;96326.41;5114515;28;20428;-58
2022/12/29 05:30:15;;;;;;;2.83;2.63;;;;;;;7.34;87.12;96322.72;5113948;28;20418;-58
2022/12/29 05:32:44;;;;;;;4.83;4.43;;;;;;;7.29;87.57;96325.22;5113621;28;20424;-58
2022/12/29 05:35:12;;;;;;;6.80;3.13;;;;;;;6.96;89.01;96324.84;5113481;28;20439;-58
2022/12/29 05:37:42;;;;;;;7.10;3.20;;;;;;;7.29;87.42;96316.50;5112335;28;20424;-57
2022/12/29 05:40:12;;;;;;;4.30;4.20;;;;;;;7.32;87.99;96332.69;5113166;28;20460;-57
2022/12/29 05:42:41;;;;;;;2.40;2.30;;;;;;;6.90;90.13;96329.19;5113495;28;20436;-57
2022/12/29 05:45:10;;;;;;;12.10;3.53;;;;;;;6.40;94.83;96330.34;5113665;28;20515;-58
2022/12/29 05:47:38;;;;;;;6.53;5.07;;;;;;;6.74;92.78;96337.69;5113717;28;20421;-57
2022/12/29 05:50:07;;;;;;;3.70;3.50;;;;;;;6.95;88.52;96339.06;5111648;28;20554;-57
2022/12/29 05:52:46;;;;;;;4.73;4.37;;;;;;;7.01;88.29;96333.69;5113248;28;20498;-57
2022/12/29 05:55:15;;;;;;;3.77;3.47;;;;;;;7.15;87.93;96344.91;5113311;28;20442;-57
2022/12/29 05:57:43;;;;;;;11.53;5.00;;;;;;;6.54;94.57;96336.28;5113351;28;20458;-57
2022/12/29 06:00:12;;;;;;;3.90;3.70;;;;;;;6.42;94.82;96335.41;5113339;28;20464;-57
2022/12/29 06:02:41;;;;;;;2.93;2.73;;;;;;;6.60;93.55;96335.41;5113490;28;20426;-57
2022/12/29 06:05:10;;;;;;;7.70;5.67;;;;;;;6.38;93.65;96327.94;5112699;28;20416;-57
2022/12/29 06:07:38;;;;;;;6.83;6.53;;;;;;;5.90;99.61;96319.06;5112847;28;20420;-58
2022/12/29 06:10:09;;;;;;;5.07;4.67;;;;;;;6.40;96.45;96348.78;5112940;28;20424;-58
2022/12/29 06:12:37;;;;;;;8.67;5.43;;;;;;;6.68;92.88;96327.22;5112468;28;20421;-58
2022/12/29 06:15:07;;;;;;;4.10;3.90;;;;;;;6.53;91.69;96327.56;5113332;28;20827;-58
2022/12/29 06:17:36;;;;;;;5.43;5.03;;;;;;;6.34;99.52;96349.66;5112627;28;20426;-57
2022/12/29 06:20:05;;;;;;;4.87;4.53;;;;;;;6.57;94.10;96335.84;5112940;28;20947;-57
2022/12/29 06:22:33;;;;;;;5.20;3.40;;;;;;;6.97;90.41;96348.38;5112249;28;20417;-58
2022/12/29 06:25:02;;;;;;;5.03;4.40;;;;;;;7.02;88.14;96306.34;5112336;28;20503;-59
2022/12/29 06:27:34;;;;;;;4.50;4.20;;;;;;;7.10;88.30;96313.13;5111889;28;20423;-58
2022/12/29 06:30:02;;;;;;;5.93;5.63;;;;;;;7.59;87.05;96341.84;5112007;28;20496;-58
2022/12/29 06:32:31;;;;;;;5.07;2.20;;;;;;;7.20;88.70;96346.84;5112713;28;20420;-59
2022/12/29 06:34:59;;;;;;;6.30;2.93;;;;;;;7.59;86.25;96346.31;5112836;28;20445;-57
2022/12/29 06:37:27;;;;;;;4.80;4.47;;;;;;;7.61;85.06;96339.78;5112528;28;20465;-58
2022/12/29 06:39:56;;;;;;;7.97;3.03;;;;;;;8.04;84.38;96358.03;5112714;28;20517;-57
2022/12/29 06:42:24;;;;;;;4.43;4.13;;;;;;;8.13;84.05;96350.56;5111520;28;20984;-57
2022/12/29 06:45:13;;;;;;;2.50;2.27;;;;;;;8.61;83.63;96353.81;5112161;28;20504;-56
2022/12/29 06:47:42;;;;;;;2.00;1.20;;;;;;;9.29;78.87;96355.72;5112304;28;20471;-57
2022/12/29 06:50:10;;;;;;;2.00;1.13;;;;;;;9.65;76.36;96358.00;5111981;28;20473;-57
2022/12/29 06:52:39;;;;;;;4.80;3.77;;;;;;;9.27;77.20;96358.63;5112478;28;20529;-57
2022/12/29 06:55:08;;;;;;;7.80;2.93;;;;;;;9.20;78.08;96333.34;5112567;28;20431;-61
2022/12/29 06:57:40;;;;;;;3.87;3.67;;;;;;;9.57;76.51;96371.59;5112374;28;20450;-60
2022/12/29 07:00:14;;;;;;;10.23;5.63;;;;;;;9.19;74.33;96374.84;5112613;28;20622;-58
2022/12/29 07:02:49;;;;;;;9.73;6.80;;;;;;;8.63;73.61;96380.78;5112454;28;20423;-57
2022/12/29 07:05:18;;;;;;;7.70;5.77;;;;;;;9.02;72.79;96368.69;5111920;28;20436;-57
2022/12/29 07:07:46;;;;;;;6.30;5.00;;;;;;;9.40;70.14;96344.31;5112037;28;20950;-53
2022/12/29 07:10:14;;;;;;;9.20;6.27;;;;;;;9.38;68.67;96372.84;5111960;28;20467;-54
2022/12/29 07:12:43;;;;;;;6.37;5.57;;;;;;;9.69;67.93;96380.28;5111743;28;20908;-54
2022/12/29 07:15:13;;;;;;;6.10;5.60;;;;;;;9.92;67.30;96382.81;5111808;28;20436;-55
2022/12/29 07:17:41;;;;;;;2.63;2.53;;;;;;;10.47;100.00;96379.53;5112037;28;20457;-57
2022/12/29 07:20:11;;;;;;;7.70;4.53;;;;;;;12.09;100.00;96385.78;5112009;28;20489;-58
2022/12/29 07:22:39;;;;;;;9.73;6.13;;;;;;;11.41;92.43;96391.66;5111745;28;20673;-57
2022/12/29 07:25:09;;;;;;;5.90;5.50;;;;;;;12.18;100.00;96391.41;5111528;28;20428;-58
2022/12/29 07:27:37;;;;;;;5.00;4.43;;;;;;;13.01;100.00;96388.81;5111863;28;20416;-59
2022/12/29 07:30:06;;;;;;;7.90;5.97;;;;;;;12.65;62.94;96386.97;5111609;28;20960;-58
2022/12/29 07:32:36;;;;;;;5.30;5.00;;;;;;;12.00;60.95;96384.59;5111689;28;20432;-58
2022/12/29 07:35:05;;;;;;;7.93;6.40;;;;;;;11.53;63.35;96387.03;5114003;28;20425;-59
2022/12/29 07:37:34;;;;;;;5.53;5.30;;;;;;;11.04;65.16;96383.50;5115539;28;20445;-59
2022/12/29 07:40:03;;;;;;;9.83;5.10;;;;;;;11.32;65.03;96374.56;5116039;28;20901;-61
2022/12/29 07:42:32;;;;;;;13.90;6.40;;;;;;;11.63;63.81;96359.78;5115699;28;20471;-59
2022/12/29 07:45:01;;;;;;;12.03;4.57;;;;;;;12.00;62.84;96371.31;5115456;28;20438;-60
2022/12/29 07:47:29;;;;;;;5.13;4.83;;;;;;;12.04;63.61;96377.75;5115056;28;20430;-60
2022/12/29 07:49:59;;;;;;;5.60;4.93;;;;;;;12.29;63.62;96363.88;5115423;28;20524;-61
2022/12/29 07:52:27;;;;;;;16.53;9.53;;;;;;;12.14;63.62;96363.75;5115514;28;20485;-61
2022/12/29 07:54:55;;;;;;;8.13;7.43;;;;;;;12.69;61.71;96364.97;5115324;28;20984;-61
2022/12/29 07:57:24;;;;;;;11.07;6.83;;;;;;;12.92;62.42;96342.47;5114995;28;20422;-63
2022/12/29 07:59:59;;;;;;;12.97;8.17;;;;;;;12.92;61.44;96345.13;5115991;28;20427;-61
2022/12/29 08:02:28;;;;;;;7.27;6.23;;;;;;;13.62;58.69;96363.28;5115982;28;20472;-60
2022/12/29 08:05:00;;;;;;;10.40;7.27;;;;;;;13.52;57.84;96371.25;5115442;28;20419;-60
2022/12/29 08:07:29;;;;;;;20.93;9.17;;;;;;;12.77;59.28;96380.41;5115266;28;20430;-62
2022/12/29 08:09:57;;;;;;;12.70;7.40;;;;;;;13.08;59.25;96373.44;5115510;28;20427;-62
2022/12/29 08:12:26;;;;;;;4.43;4.13;;;;;;;12.84;58.91;96374.09;5115550;28;20428;-61
2022/12/29 08:14:54;;;;;;;3.87;2.90;;;;;;;13.13;58.13;96330.09;5115344;28;20507;-61
2022/12/29 08:17:22;;;;;;;11.97;4.93;;;;;;;14.27;56.97;96377.78;5115289;28;20987;-62
2022/12/29 08:19:50;;;;;;;9.10;5.40;;;;;;;14.85;55.57;96376.44;5114989;28;20507;-61
2022/12/29 08:22:20;;;;;;;3.87;3.57;;;;;;;15.38;53.82;96337.53;5115167;28;20470;-61
2022/12/29 08:24:48;;;;;;;4.33;4.03;;;;;;;16.27;51.60;96346.09;5115352;28;20436;-62
2022/12/29 08:27:17;;;;;;;5.23;4.30;;;;;;;16.21;51.33;96360.59;5115136;28;20954;-61
2022/12/29 08:29:48;;;;;;;4.63;4.33;;;;;;;15.83;51.42;96366.72;5115336;28;20836;-60
2022/12/29 08:32:17;;;;;;;2.40;2.30;;;;;;;15.80;51.88;96353.91;5115018;28;20440;-61
2022/12/29 08:34:46;;;;;;;6.63;6.10;;;;;;;15.67;52.55;96359.88;5115023;28;20424;-57
2022/12/29 08:37:14;;;;;;;7.00;6.40;;;;;;;16.10;53.96;96355.59;5114740;28;20935;-57
2022/12/29 08:39:44;;;;;;;2.50;2.30;;;;;;;16.20;51.54;96360.84;5114446;28;20553;-56
2022/12/29 08:42:12;;;;;;;7.70;4.63;;;;;;;16.40;50.94;96369.53;5114949;28;20550;-57
2022/12/29 08:44:41;;;;;;;7.73;7.00;;;;;;;15.65;51.46;96367.38;5114187;28;20519;-57
2022/12/29 08:47:10;;;;;;;6.10;4.70;;;;;;;15.51;51.95;96369.81;5114508;28;20438;-57
2022/12/29 08:49:39;;;;;;;5.33;4.93;;;;;;;15.43;51.88;96367.69;5114365;28;21078;-57
2022/12/29 08:52:08;;;;;;;5.50;4.90;;;;;;;14.84;53.15;96364.16;5114633;28;20784;-57
2022/12/29 08:54:36;;;;;;;22.20;7.73;;;;;;;14.50;53.67;96314.03;5113749;28;20916;-57
2022/12/29 08:57:07;;;;;;;10.30;5.80;;;;;;;15.16;53.69;96354.72;5113710;28;20972;-57
2022/12/29 08:59:36;;;;;;;4.43;3.93;;;;;;;15.27;53.73;96361.63;5113722;28;20455;-58
2022/12/29 09:02:06;;;;;;;9.60;6.67;;;;;;;14.61;53.99;96352.97;5113883;28;20885;-58
2022/12/29 09:04:35;;;;;;;8.00;5.57;;;;;;;13.95;55.82;96356.69;5114303;28;20766;-58
2022/12/29 09:07:04;;;;;;;6.43;5.30;;;;;;;13.19;58.36;96361.00;5111253;28;20432;-59
2022/12/29 09:09:32;;;;;;;7.13;4.00;;;;;;;14.28;57.06;96347.38;5113650;28;20467;-59
2022/12/29 09:12:01;;;;;;;2.37;2.17;;;;;;;15.28;56.19;96336.50;5110978;28;20436;-59
2022/12/29 09:14:30;;;;;;;6.20;3.47;;;;;;;15.76;53.20;96323.47;5113495;28;20790;-59
2022/12/29 09:19:44;;;;;;;3.77;3.63;;;;;;;16.37;50.69;96323.78;5114045;28;20935;-58
2022/12/29 09:22:13;;;;;;;4.13;3.70;;;;;;;16.16;51.08;96317.84;5113830;28;20464;-58
2022/12/29 09:24:41;;;;;;;6.57;3.37;;;;;;;16.68;50.19;96321.66;5113721;28;20435;-57
2022/12/29 09:27:09;;;;;;;3.00;2.80;;;;;;;17.55;48.75;96310.50;5113791;28;20480;-56
2022/12/29 09:29:39;;;;;;;7.33;4.63;;;;;;;17.04;50.32;96310.31;5113471;28;21027;-61
2022/12/29 09:32:08;;;;;;;6.13;5.57;;;;;;;15.90;52.42;96305.72;5113601;28;20428;-57
2022/12/29 09:34:44;;;;;;;4.50;4.20;;;;;;;17.35;52.46;96300.03;5112054;28;20496;-54
2022/12/29 09:37:12;;;;;;;3.67;2.43;;;;;;;18.36;50.79;96291.31;5112976;28;20463;-54
2022/12/29 09:39:40;;;;;;;5.93;2.27;;;;;;;19.55;48.25;96285.03;5112980;28;20529;-54
2022/12/29 09:42:17;;;;;;;3.10;3.00;;;;;;;18.75;47.16;96288.19;5113453;28;20464;-54
2022/12/29 09:44:57;;;;;;;5.73;2.00;;;;;;;18.21;47.93;96274.66;5113405;28;20932;-58
2022/12/29 09:47:27;;;;;;;4.33;3.93;;;;;;;17.88;51.75;96283.75;5112864;28;20428;-58
2022/12/29 09:50:01;;;;;;;4.07;3.50;;;;;;;17.43;49.55;96288.63;5113165;28;20474;-57
2022/12/29 09:52:33;;;;;;;1.83;1.53;;;;;;;18.60;49.72;96280.41;5113105;28;20430;-58
2022/12/29 09:55:05;;;;;;;12.53;2.90;;;;;;;19.12;46.68;96267.63;5113195;28;20424;-57
2022/12/29 09:57:46;;;;;;;3.27;2.80;;;;;;;17.15;48.63;96281.53;5111538;28;20810;-58
2022/12/29 10:00:19;;;;;;;1.77;1.67;;;;;;;18.55;47.70;96272.47;5113476;28;20424;-57
2022/12/29 10:02:52;;;;;;;3.47;1.90;;;;;;;19.12;48.21;96267.63;5112472;28;20479;-57
2022/12/29 10:05:32;;;;;;;2.93;2.63;;;;;;;17.56;47.47;96271.06;5112413;28;20428;-57
2022/12/29 10:08:11;;;;;;;6.60;2.77;;;;;;;17.25;47.99;96257.28;5113185;28;20427;-58
2022/12/29 10:10:51;;;;;;;1.30;1.20;;;;;;;16.68;49.55;96273.47;5113003;28;20428;-59
2022/12/29 10:13:29;;;;;;;2.20;1.73;;;;;;;16.33;50.21;96274.63;5113124;28;20419;-59
2022/12/29 10:16:06;;;;;;;2.93;2.83;;;;;;;16.23;50.12;96267.47;5112413;28;20451;-58
2022/12/29 10:19:03;;;;;;;2.30;2.10;;;;;;;17.17;48.99;96263.28;5112615;28;20497;-62
2022/12/29 10:21:46;;;;;;;3.47;3.37;;;;;;;16.77;49.81;96267.25;5112444;28;20432;-60
2022/12/29 10:24:14;;;;;;;2.87;1.63;;;;;;;16.55;50.62;96293.69;5112414;28;20502;-60
2022/12/29 10:26:44;;;;;;;1.90;1.80;;;;;;;16.02;51.03;96238.50;5112577;28;20845;-60
2022/12/29 10:29:19;;;;;;;4.07;3.87;;;;;;;15.80;50.95;96201.53;5112591;28;20428;-61
2022/12/29 10:31:52;;;;;;;3.03;2.43;;;;;;;15.24;52.25;96187.75;5112231;28;20498;-62
2022/12/29 10:34:26;;;;;;;3.23;2.77;;;;;;;14.85;53.46;96230.41;5111428;28;20444;-61
2022/12/29 10:37:01;;;;;;;3.33;3.23;;;;;;;14.58;54.72;96238.00;5111602;28;20959;-62
2022/12/29 10:39:35;;;;;;;2.10;1.53;;;;;;;14.28;55.73;96248.69;5111387;28;20466;-62
2022/12/29 10:42:12;;;;;;;3.20;2.07;;;;;;;14.42;55.65;96244.44;5112334;28;20420;-63
2022/12/29 10:44:40;;;;;;;15.33;2.77;;;;;;;14.29;56.20;96234.31;5112279;28;20438;-62
2022/12/29 10:47:16;;;;;;;2.90;2.63;;;;;;;14.34;56.12;96226.31;5112895;28;20430;-66
2022/12/29 10:49:47;;;;;;;2.40;1.63;;;;;;;13.87;56.79;96211.44;5111578;28;20455;-68
2022/12/29 10:52:18;;;;;;;1.67;1.67;;;;;;;13.51;57.42;96179.75;5111835;28;20519;-68
2022/12/29 10:54:53;;;;;;;1.43;1.40;;;;;;;13.91;58.00;96228.47;5112017;28;20439;-67
2022/12/29 10:57:27;;;;;;;0.70;0.70;;;;;;;13.35;58.12;96225.00;5111436;28;20436;-64
2022/12/29 10:59:56;;;;;;;3.20;1.50;;;;;;;13.03;59.23;96224.34;5111597;28;21079;-62
2022/12/29 11:03:06;;;;;;;0.70;0.70;;;;;;;13.55;60.01;96210.91;5119012;28;20493;-61
2022/12/29 11:05:39;;;;;;;0.67;0.67;;;;;;;13.61;57.15;96131.78;5095471;28;20462;-60
2022/12/29 11:08:11;;;;;;;13.73;1.37;;;;;;;13.17;58.68;96195.41;5111733;28;21004;-60
2022/12/29 11:10:41;;;;;;;1.80;1.70;;;;;;;13.28;59.15;96200.47;5111918;28;20431;-59
2022/12/29 11:13:15;;;;;;;2.03;1.20;;;;;;;13.57;59.75;96206.09;5112260;28;20537;-58
2022/12/29 11:15:45;;;;;;;4.70;0.77;;;;;;;13.45;58.28;96173.63;5112012;28;20906;-57
2022/12/29 11:18:24;;;;;;;2.60;1.57;;;;;;;13.43;59.03;96196.25;5111867;28;20795;-57
2022/12/29 11:20:54;;;;;;;1.07;0.90;;;;;;;13.53;59.39;96194.41;5111726;28;20510;-58
2022/12/29 11:23:26;;;;;;;8.70;2.80;;;;;;;13.47;59.41;96190.13;5111398;28;20494;-56
2022/12/29 11:26:13;;;;;;;1.87;1.77;;;;;;;13.72;58.97;96198.09;5111028;28;20459;-58
2022/12/29 11:28:43;;;;;;;2.73;2.63;;;;;;;14.41;57.98;96187.63;5091240;28;20915;-60
2022/12/29 11:31:16;;;;;;;2.43;2.30;;;;;;;15.87;54.94;96180.63;5100353;28;20464;-63
2022/12/29 11:33:45;;;;;;;9.20;8.40;;;;;;;15.99;54.40;96142.81;5108820;28;20439;-60
2022/12/29 11:36:18;;;;;;;7.47;5.07;;;;;;;16.58;53.04;96180.72;5109527;28;20923;-60
2022/12/29 11:38:50;;;;;;;5.67;5.37;;;;;;;16.70;51.35;96169.59;5109599;28;20432;-61
2022/12/29 11:41:23;;;;;;;3.70;3.00;;;;;;;16.91;50.43;96168.25;5109464;28;20438;-60
2022/12/29 11:43:53;;;;;;;27.13;6.67;;;;;;;16.60;51.43;96180.41;5109943;28;20468;-60
2022/12/29 11:46:27;;;;;;;4.87;4.57;;;;;;;16.94;49.96;96162.34;5110310;28;20440;-60
2022/12/29 11:49:00;;;;;;;6.53;4.13;;;;;;;17.03;50.53;96168.63;5111719;28;20458;-60
2022/12/29 11:51:35;;;;;;;8.00;4.70;;;;;;;17.81;50.78;96155.38;5111406;28;20424;-62
2022/12/29 11:54:06;;;;;;;11.40;4.37;;;;;;;18.04;47.30;96159.81;5110983;28;20426;-63
2022/12/29 11:56:37;;;;;;;3.07;2.87;;;;;;;19.00;46.57;96156.06;5111309;28;20463;-64
2022/12/29 11:59:43;;;;;;;4.63;4.33;;;;;;;19.12;45.70;96152.88;5111360;28;20508;-62
2022/12/29 12:02:43;;;;;;;7.03;4.97;;;;;;;19.20;44.56;96144.06;5028542;28;20849;-61
2022/12/29 12:05:20;;;;;;;4.83;4.53;;;;;;;19.58;44.16;96155.34;5021419;28;20458;-58
2022/12/29 12:07:53;;;;;;;4.70;4.40;;;;;;;19.56;44.34;96146.75;5084730;28;21152;-58
2022/12/29 12:10:26;;;;;;;2.10;1.90;;;;;;;19.88;44.72;96143.81;5109820;28;20787;-55
2022/12/29 12:13:03;;;;;;;2.07;1.97;;;;;;;20.10;44.66;96140.28;5110559;28;20807;-54
2022/12/29 12:15:38;;;;;;;3.07;2.87;;;;;;;20.23;44.06;96136.75;5111047;28;20866;-55
2022/12/29 12:18:20;;;;;;;8.10;2.90;;;;;;;20.42;43.53;96098.78;5110965;28;20431;-55
2022/12/29 12:20:55;;;;;;;2.90;2.70;;;;;;;20.46;44.11;96124.81;5112524;28;20459;-54
2022/12/29 12:23:33;;;;;;;3.90;1.63;;;;;;;20.73;44.33;96061.78;5113094;28;20469;-55
2022/12/29 12:26:10;;;;;;;2.20;2.10;;;;;;;21.53;42.09;96117.81;5114035;28;20939;-54
2022/12/29 12:28:46;;;;;;;6.10;1.70;;;;;;;21.88;49.17;96113.19;5114725;28;20415;-60
2022/12/29 12:31:27;;;;;;;3.33;2.40;;;;;;;21.51;41.80;96090.38;5114990;28;20865;-60
2022/12/29 12:34:00;;;;;;;8.70;2.10;;;;;;;21.16;41.29;96111.16;5114664;28;20488;-59
2022/12/29 12:36:47;;;;;;;1.90;1.60;;;;;;;21.11;41.15;96105.13;5114955;28;20511;-59
2022/12/29 12:39:26;;;;;;;2.17;2.03;;;;;;;21.30;41.83;96108.31;5114878;28;20475;-59
2022/12/29 12:42:09;;;;;;;1.53;0.93;;;;;;;20.75;42.70;96099.97;5114639;28;20434;-59